Olivet, Iowa
Current Conditions -  °F | °C
As of 12:35 PM on Sunday 23 Nov 2014 (Local Time) from KPEA Reporting Station
Moderate Rain Moderate Rain  
Wind Chill: 52°   Ceiling: 500
Heat Index: 52°   Visibility: 2.5mi
Dew Point: 51°   Wind: 3mph
Humidity: 98%   Direction: 160°SSE
Pressure: 29.41"   Gusts: NA
Location:  41.3761°N, 92.8159°W
Report Text: KPEA 231835Z AUTO 16003KT 2 1/2SM RA OVC005 11/11 A2941 RMK AO2 T01100107
Loading
Personal Weather Stations






























Interactive Weather Map New forecast layout! Learn more

10-Day Weather Forecast

Advertisements
Track Severe Weather on mobile